Shin Chun — VRFD2 — position and weather

sailwx.info

Track history (hours):
 
Tides and Currents Weather Stations Pressure Air Temp Water Temp Dewpoint Dewpoint Depression Visibility Wind Speed Wind Dir Waves Ship Positions

Shin Chun

Last reported at 2015-Aug-27 03:32 UTC. Time now 2015-Aug-28 17:09 UTC.
Position N 24°10' E 118°22'.

Length 152 m; draft 6.7 m.

Type: Cargo ship. MMSI: 477218300.

Date/timePositionNaut miles runAvg speedWind from/ knotsBaromVisibWave heightAir tempDewpointWater temp
2015-Aug-27 03:32N 24°10' E 118°22'1413.8
2015-Aug-27 02:33N 24°19' E 118°12'1211.6
2015-Aug-27 01:32N 24°28' E 118°03'3 2.6
2015-Aug-27 00:19N 24°31' E 118°05'0 0.0
2015-Aug-26 22:10N 24°31' E 118°05'0 0.0
2015-Aug-26 21:25N 24°31' E 118°05'0 0.0
2015-Aug-26 20:16N 24°31' E 118°05'0 0.0
2015-Aug-26 19:28N 24°31' E 118°05'0 0.0
2015-Aug-26 18:32N 24°31' E 118°05'0 0.0
2015-Aug-26 17:28N 24°31' E 118°05'0 0.0
2015-Aug-26 16:28N 24°31' E 118°05'0 0.0
2015-Aug-26 15:28N 24°31' E 118°05'0 0.0
2015-Aug-26 14:34N 24°31' E 118°05'0 0.0
2015-Aug-26 13:21N 24°31' E 118°05'0 0.0
2015-Aug-26 12:33N 24°31' E 118°05'0 0.0
2015-Aug-26 11:21N 24°31' E 118°05'0 0.0
2015-Aug-26 10:33N 24°31' E 118°05'0 0.0
2015-Aug-26 09:25N 24°31' E 118°05'4 2.2
2015-Aug-26 07:33N 24°27' E 118°03'1110.8
2015-Aug-26 06:33N 24°20' E 118°12'2 1.8
2015-Aug-26 05:21N 24°20' E 118°14'0 0.1
2015-Aug-26 04:24N 24°20' E 118°14'0 0.5
2015-Aug-26 03:29N 24°20' E 118°14'6 6.6
2015-Aug-26 02:32N 24°20' E 118°21'1514.1
2015-Aug-26 01:28N 24°22' E 118°38'2714.1
2015-Aug-25 23:33N 24°31' E 119°06'1413.9
2015-Aug-25 22:34N 24°35' E 119°20'1413.4
2015-Aug-25 21:32N 24°40' E 119°34'2913.5
2015-Aug-25 19:24N 24°51' E 120°04'1713.3
2015-Aug-25 18:05N 24°57' E 120°21'813.7
2015-Aug-25 17:29N 25°00' E 120°30'  
2015-Aug-23 07:33N 26°08' E 119°35'9 9.3
2015-Aug-23 06:33N 26°00' E 119°29'0 0.0
2015-Aug-23 05:33N 26°00' E 119°29'0 0.0
2015-Aug-23 04:33N 26°00' E 119°29'0 0.0
2015-Aug-23 03:33N 26°00' E 119°29'0 0.0
2015-Aug-23 02:33N 26°00' E 119°29'0 0.0
2015-Aug-23 01:33N 26°00' E 119°29'0 0.0
2015-Aug-23 00:33N 26°00' E 119°29'0 0.0
2015-Aug-22 23:33N 26°00' E 119°29'0 0.0
2015-Aug-22 22:33N 26°00' E 119°29'0 0.0
2015-Aug-22 21:33N 26°00' E 119°29'0 0.0
2015-Aug-22 20:33N 26°00' E 119°29'0 0.0
2015-Aug-22 19:33N 26°00' E 119°29'0 0.0
2015-Aug-22 18:33N 26°00' E 119°29'0 0.0
2015-Aug-22 17:33N 26°00' E 119°29'0 0.0
2015-Aug-22 16:33N 26°00' E 119°29'0 0.0
2015-Aug-22 15:33N 26°00' E 119°29'0 0.0
2015-Aug-22 14:33N 26°00' E 119°29'0 0.0
2015-Aug-22 13:33N 26°00' E 119°29'0 0.0
2015-Aug-22 12:33N 26°00' E 119°29'0 0.0
2015-Aug-22 11:33N 26°00' E 119°29'0 0.0
2015-Aug-22 10:33N 26°00' E 119°29'0 0.0
2015-Aug-22 09:33N 26°00' E 119°29'0 0.0
2015-Aug-22 08:33N 26°00' E 119°29'2 2.0
2015-Aug-22 07:33N 26°02' E 119°30'1110.7
2015-Aug-22 06:31N 26°06' E 119°42'  
2015-Aug-18 02:32N 26°02' E 119°30'2 1.3
2015-Aug-18 01:16N 26°00' E 119°29'0 0.0
2015-Aug-18 00:28N 26°00' E 119°29'0 0.0
2015-Aug-17 23:28N 26°00' E 119°29'0 0.0
2015-Aug-17 22:28N 26°00' E 119°29'0 0.0
2015-Aug-17 21:28N 26°00' E 119°29'0 0.0
2015-Aug-17 20:28N 26°00' E 119°29'0 0.0
2015-Aug-17 19:10N 26°00' E 119°29'0 0.0
2015-Aug-17 18:28N 26°00' E 119°29'0 0.0
2015-Aug-17 17:28N 26°00' E 119°29'0 0.0
2015-Aug-17 16:28N 26°00' E 119°29'0 0.0
2015-Aug-17 15:28N 26°00' E 119°29'0 0.0
2015-Aug-17 14:28N 26°00' E 119°29'0 0.0
2015-Aug-17 13:28N 26°00' E 119°29'0 0.0
2015-Aug-17 12:28N 26°00' E 119°29'0 0.0
2015-Aug-17 10:22N 26°00' E 119°29'0 0.0
2015-Aug-17 09:10N 26°00' E 119°29'0 0.0
2015-Aug-17 08:28N 26°00' E 119°29'0 0.0
2015-Aug-17 07:22N 26°00' E 119°29'0 0.0
2015-Aug-17 06:25N 26°00' E 119°29'0 0.0
2015-Aug-17 05:31N 26°00' E 119°29'  
Track history (hours):
 
Tides and Currents Weather Stations Pressure Air Temp Water Temp Dewpoint Dewpoint Depression Visibility Wind Speed Wind Dir Waves Ship Positions

Shin Chun

Last reported at 2015-Aug-27 03:32 UTC. Time now 2015-Aug-28 17:09 UTC.
Position N 24°10' E 118°22'.

Length 152 m; draft 6.7 m.

Type: Cargo ship. MMSI: 477218300.

Date/timePositionNaut miles runAvg speedWind from/ knotsBaromVisibWave heightAir tempDewpointWater temp
2015-Aug-27 03:32N 24°10' E 118°22'1413.8
2015-Aug-27 02:33N 24°19' E 118°12'1211.6
2015-Aug-27 01:32N 24°28' E 118°03'3 2.6
2015-Aug-27 00:19N 24°31' E 118°05'0 0.0
2015-Aug-26 22:10N 24°31' E 118°05'0 0.0
2015-Aug-26 21:25N 24°31' E 118°05'0 0.0
2015-Aug-26 20:16N 24°31' E 118°05'0 0.0
2015-Aug-26 19:28N 24°31' E 118°05'0 0.0
2015-Aug-26 18:32N 24°31' E 118°05'0 0.0
2015-Aug-26 17:28N 24°31' E 118°05'0 0.0
2015-Aug-26 16:28N 24°31' E 118°05'0 0.0
2015-Aug-26 15:28N 24°31' E 118°05'0 0.0
2015-Aug-26 14:34N 24°31' E 118°05'0 0.0
2015-Aug-26 13:21N 24°31' E 118°05'0 0.0
2015-Aug-26 12:33N 24°31' E 118°05'0 0.0
2015-Aug-26 11:21N 24°31' E 118°05'0 0.0
2015-Aug-26 10:33N 24°31' E 118°05'0 0.0
2015-Aug-26 09:25N 24°31' E 118°05'4 2.2
2015-Aug-26 07:33N 24°27' E 118°03'1110.8
2015-Aug-26 06:33N 24°20' E 118°12'2 1.8
2015-Aug-26 05:21N 24°20' E 118°14'0 0.1
2015-Aug-26 04:24N 24°20' E 118°14'0 0.5
2015-Aug-26 03:29N 24°20' E 118°14'6 6.6
2015-Aug-26 02:32N 24°20' E 118°21'1514.1
2015-Aug-26 01:28N 24°22' E 118°38'2714.1
2015-Aug-25 23:33N 24°31' E 119°06'1413.9
2015-Aug-25 22:34N 24°35' E 119°20'1413.4
2015-Aug-25 21:32N 24°40' E 119°34'2913.5
2015-Aug-25 19:24N 24°51' E 120°04'1713.3
2015-Aug-25 18:05N 24°57' E 120°21'813.7
2015-Aug-25 17:29N 25°00' E 120°30'  
2015-Aug-23 07:33N 26°08' E 119°35'9 9.3
2015-Aug-23 06:33N 26°00' E 119°29'0 0.0
2015-Aug-23 05:33N 26°00' E 119°29'0 0.0
2015-Aug-23 04:33N 26°00' E 119°29'0 0.0
2015-Aug-23 03:33N 26°00' E 119°29'0 0.0
2015-Aug-23 02:33N 26°00' E 119°29'0 0.0
2015-Aug-23 01:33N 26°00' E 119°29'0 0.0
2015-Aug-23 00:33N 26°00' E 119°29'0 0.0
2015-Aug-22 23:33N 26°00' E 119°29'0 0.0
2015-Aug-22 22:33N 26°00' E 119°29'0 0.0
2015-Aug-22 21:33N 26°00' E 119°29'0 0.0
2015-Aug-22 20:33N 26°00' E 119°29'0 0.0
2015-Aug-22 19:33N 26°00' E 119°29'0 0.0
2015-Aug-22 18:33N 26°00' E 119°29'0 0.0
2015-Aug-22 17:33N 26°00' E 119°29'0 0.0
2015-Aug-22 16:33N 26°00' E 119°29'0 0.0
2015-Aug-22 15:33N 26°00' E 119°29'0 0.0
2015-Aug-22 14:33N 26°00' E 119°29'0 0.0
2015-Aug-22 13:33N 26°00' E 119°29'0 0.0
2015-Aug-22 12:33N 26°00' E 119°29'0 0.0
2015-Aug-22 11:33N 26°00' E 119°29'0 0.0
2015-Aug-22 10:33N 26°00' E 119°29'0 0.0
2015-Aug-22 09:33N 26°00' E 119°29'0 0.0
2015-Aug-22 08:33N 26°00' E 119°29'2 2.0
2015-Aug-22 07:33N 26°02' E 119°30'1110.7
2015-Aug-22 06:31N 26°06' E 119°42'  
2015-Aug-18 02:32N 26°02' E 119°30'2 1.3
2015-Aug-18 01:16N 26°00' E 119°29'0 0.0
2015-Aug-18 00:28N 26°00' E 119°29'0 0.0
2015-Aug-17 23:28N 26°00' E 119°29'0 0.0
2015-Aug-17 22:28N 26°00' E 119°29'0 0.0
2015-Aug-17 21:28N 26°00' E 119°29'0 0.0
2015-Aug-17 20:28N 26°00' E 119°29'0 0.0
2015-Aug-17 19:10N 26°00' E 119°29'0 0.0
2015-Aug-17 18:28N 26°00' E 119°29'0 0.0
2015-Aug-17 17:28N 26°00' E 119°29'0 0.0
2015-Aug-17 16:28N 26°00' E 119°29'0 0.0
2015-Aug-17 15:28N 26°00' E 119°29'0 0.0
2015-Aug-17 14:28N 26°00' E 119°29'0 0.0
2015-Aug-17 13:28N 26°00' E 119°29'0 0.0
2015-Aug-17 12:28N 26°00' E 119°29'0 0.0
2015-Aug-17 10:22N 26°00' E 119°29'0 0.0
2015-Aug-17 09:10N 26°00' E 119°29'0 0.0
2015-Aug-17 08:28N 26°00' E 119°29'0 0.0
2015-Aug-17 07:22N 26°00' E 119°29'0 0.0
2015-Aug-17 06:25N 26°00' E 119°29'0 0.0
2015-Aug-17 05:31N 26°00' E 119°29'  

Dump ship's entire track history